Boline, Louisiana
Current Conditions -  °F | °C
As of 2:55 PM on Thursday 23 Oct 2014 (Local Time) from KIER Reporting Station
Clear Clear  
Wind Chill: 70°   Ceiling: Unl
Heat Index: 70°   Visibility: 10mi
Dew Point: 50°   Wind: 6mph
Humidity: 49%   Direction: 10°N
Pressure: 30.1"   Gusts: NA
Location:  31.7926°N, 93.4001°W
Report Text: KIER 231955Z AUTO 01005KT 10SM CLR 21/10 A3010 RMK AO2 T02120102
Loading
Personal Weather Stations






























Interactive Weather Map
Tropical Storm Tracking
New forecast layout! Learn more

10-Day Weather Forecast

Advertisements
Track Severe Weather on mobile